sensor_id;sensor_type;location;lat;lon;timestamp;P1;durP1;ratioP1;P2;durP2;ratioP2
71176;SDS011;58877;51.992;4.504;2024-01-07T00:06:58;10.17;;;10.13;;
71176;SDS011;58877;51.992;4.504;2024-01-07T00:12:42;9.77;;;9.73;;
71176;SDS011;58877;51.992;4.504;2024-01-07T00:15:14;9.33;;;9.29;;
71176;SDS011;58877;51.992;4.504;2024-01-07T00:17:52;9.10;;;9.06;;
71176;SDS011;58877;51.992;4.504;2024-01-07T00:20:18;8.81;;;8.76;;
71176;SDS011;58877;51.992;4.504;2024-01-07T00:22:48;8.97;;;8.86;;
71176;SDS011;58877;51.992;4.504;2024-01-07T00:25:14;8.88;;;8.86;;
71176;SDS011;58877;51.992;4.504;2024-01-07T00:28:00;9.11;;;9.11;;
71176;SDS011;58877;51.992;4.504;2024-01-07T00:30:26;8.94;;;8.94;;
71176;SDS011;58877;51.992;4.504;2024-01-07T00:33:14;8.57;;;8.56;;
71176;SDS011;58877;51.992;4.504;2024-01-07T00:35:45;8.04;;;8.04;;
71176;SDS011;58877;51.992;4.504;2024-01-07T00:38:11;8.33;;;8.33;;
71176;SDS011;58877;51.992;4.504;2024-01-07T00:44:14;9.61;;;9.56;;
71176;SDS011;58877;51.992;4.504;2024-01-07T00:57:07;9.03;;;8.91;;
71176;SDS011;58877;51.992;4.504;2024-01-07T01:03:51;8.87;;;8.80;;
71176;SDS011;58877;51.992;4.504;2024-01-07T01:16:23;9.03;;;9.03;;
71176;SDS011;58877;51.992;4.504;2024-01-07T01:19:04;8.85;;;8.85;;
71176;SDS011;58877;51.992;4.504;2024-01-07T01:25:25;8.81;;;8.70;;
71176;SDS011;58877;51.992;4.504;2024-01-07T02:08:57;10.28;;;10.19;;
71176;SDS011;58877;51.992;4.504;2024-01-07T02:11:23;10.66;;;10.40;;
71176;SDS011;58877;51.992;4.504;2024-01-07T02:13:49;10.92;;;10.64;;
71176;SDS011;58877;51.992;4.504;2024-01-07T02:16:17;10.48;;;10.36;;
71176;SDS011;58877;51.992;4.504;2024-01-07T02:18:46;10.92;;;10.85;;
71176;SDS011;58877;51.992;4.504;2024-01-07T02:21:13;10.21;;;10.21;;
71176;SDS011;58877;51.992;4.504;2024-01-07T02:23:40;10.45;;;10.38;;
71176;SDS011;58877;51.992;4.504;2024-01-07T02:26:09;10.04;;;10.03;;
71176;SDS011;58877;51.992;4.504;2024-01-07T02:28:35;10.69;;;10.68;;
71176;SDS011;58877;51.992;4.504;2024-01-07T02:31:00;10.98;;;10.82;;
71176;SDS011;58877;51.992;4.504;2024-01-07T02:33:26;9.80;;;9.77;;
71176;SDS011;58877;51.992;4.504;2024-01-07T02:35:53;9.91;;;9.91;;
71176;SDS011;58877;51.992;4.504;2024-01-07T02:38:19;8.75;;;8.74;;
71176;SDS011;58877;51.992;4.504;2024-01-07T02:40:45;9.39;;;9.29;;
71176;SDS011;58877;51.992;4.504;2024-01-07T02:43:10;9.45;;;9.43;;
71176;SDS011;58877;51.992;4.504;2024-01-07T02:45:37;9.75;;;9.62;;
71176;SDS011;58877;51.992;4.504;2024-01-07T02:48:03;10.13;;;10.05;;
71176;SDS011;58877;51.992;4.504;2024-01-07T02:50:29;10.64;;;10.57;;
71176;SDS011;58877;51.992;4.504;2024-01-07T02:52:54;10.87;;;10.86;;
71176;SDS011;58877;51.992;4.504;2024-01-07T02:55:20;10.72;;;10.68;;
71176;SDS011;58877;51.992;4.504;2024-01-07T02:57:46;10.32;;;10.22;;
71176;SDS011;58877;51.992;4.504;2024-01-07T03:00:12;9.57;;;9.45;;
71176;SDS011;58877;51.992;4.504;2024-01-07T03:02:38;9.99;;;9.95;;
71176;SDS011;58877;51.992;4.504;2024-01-07T03:05:03;9.95;;;9.91;;
71176;SDS011;58877;51.992;4.504;2024-01-07T03:07:29;10.00;;;9.90;;
71176;SDS011;58877;51.992;4.504;2024-01-07T03:09:55;9.87;;;9.78;;
71176;SDS011;58877;51.992;4.504;2024-01-07T03:12:21;9.74;;;9.70;;
71176;SDS011;58877;51.992;4.504;2024-01-07T03:14:46;9.98;;;9.93;;
71176;SDS011;58877;51.992;4.504;2024-01-07T03:17:12;9.32;;;9.20;;
71176;SDS011;58877;51.992;4.504;2024-01-07T03:19:40;9.75;;;9.74;;
71176;SDS011;58877;51.992;4.504;2024-01-07T03:22:06;9.23;;;9.22;;
71176;SDS011;58877;51.992;4.504;2024-01-07T03:24:33;10.37;;;10.36;;
71176;SDS011;58877;51.992;4.504;2024-01-07T03:26:59;10.57;;;10.39;;
71176;SDS011;58877;51.992;4.504;2024-01-07T03:29:25;11.45;;;11.22;;
71176;SDS011;58877;51.992;4.504;2024-01-07T03:31:51;10.94;;;10.73;;
71176;SDS011;58877;51.992;4.504;2024-01-07T03:34:18;11.00;;;10.83;;
71176;SDS011;58877;51.992;4.504;2024-01-07T03:36:44;11.50;;;11.28;;
71176;SDS011;58877;51.992;4.504;2024-01-07T03:39:10;10.99;;;10.98;;
71176;SDS011;58877;51.992;4.504;2024-01-07T03:41:35;11.60;;;11.60;;
71176;SDS011;58877;51.992;4.504;2024-01-07T03:44:01;11.25;;;11.15;;
71176;SDS011;58877;51.992;4.504;2024-01-07T03:46:27;12.09;;;11.89;;
71176;SDS011;58877;51.992;4.504;2024-01-07T03:48:52;11.42;;;11.35;;
71176;SDS011;58877;51.992;4.504;2024-01-07T03:51:18;11.98;;;11.95;;
71176;SDS011;58877;51.992;4.504;2024-01-07T03:53:44;12.30;;;12.04;;
71176;SDS011;58877;51.992;4.504;2024-01-07T03:56:10;12.14;;;12.07;;
71176;SDS011;58877;51.992;4.504;2024-01-07T03:58:35;12.30;;;12.24;;
71176;SDS011;58877;51.992;4.504;2024-01-07T04:01:01;12.52;;;12.33;;
71176;SDS011;58877;51.992;4.504;2024-01-07T04:03:30;12.04;;;11.92;;
71176;SDS011;58877;51.992;4.504;2024-01-07T04:05:58;12.27;;;12.22;;
71176;SDS011;58877;51.992;4.504;2024-01-07T04:08:24;12.74;;;12.51;;
71176;SDS011;58877;51.992;4.504;2024-01-07T04:10:50;12.81;;;12.57;;
71176;SDS011;58877;51.992;4.504;2024-01-07T04:13:16;12.56;;;12.38;;
71176;SDS011;58877;51.992;4.504;2024-01-07T04:15:42;12.58;;;12.55;;
71176;SDS011;58877;51.992;4.504;2024-01-07T04:18:08;12.44;;;12.37;;
71176;SDS011;58877;51.992;4.504;2024-01-07T04:20:33;12.82;;;12.69;;
71176;SDS011;58877;51.992;4.504;2024-01-07T04:22:59;12.62;;;12.55;;
71176;SDS011;58877;51.992;4.504;2024-01-07T04:25:24;13.05;;;12.90;;
71176;SDS011;58877;51.992;4.504;2024-01-07T04:27:50;12.30;;;12.19;;
71176;SDS011;58877;51.992;4.504;2024-01-07T04:30:16;12.31;;;12.14;;
71176;SDS011;58877;51.992;4.504;2024-01-07T04:32:41;12.50;;;12.25;;
71176;SDS011;58877;51.992;4.504;2024-01-07T04:35:08;13.07;;;12.89;;
71176;SDS011;58877;51.992;4.504;2024-01-07T04:37:35;12.16;;;12.08;;
71176;SDS011;58877;51.992;4.504;2024-01-07T04:40:01;11.88;;;11.73;;
71176;SDS011;58877;51.992;4.504;2024-01-07T04:42:27;11.69;;;11.60;;
71176;SDS011;58877;51.992;4.504;2024-01-07T04:44:53;11.71;;;11.66;;
71176;SDS011;58877;51.992;4.504;2024-01-07T04:47:30;12.09;;;12.02;;
71176;SDS011;58877;51.992;4.504;2024-01-07T04:50:00;12.23;;;12.22;;
71176;SDS011;58877;51.992;4.504;2024-01-07T04:52:27;11.92;;;11.92;;
71176;SDS011;58877;51.992;4.504;2024-01-07T04:54:53;11.49;;;11.48;;
71176;SDS011;58877;51.992;4.504;2024-01-07T04:57:19;12.38;;;12.26;;
71176;SDS011;58877;51.992;4.504;2024-01-07T04:59:46;12.85;;;12.70;;
71176;SDS011;58877;51.992;4.504;2024-01-07T05:02:13;12.64;;;12.53;;
71176;SDS011;58877;51.992;4.504;2024-01-07T05:04:39;11.92;;;11.78;;
71176;SDS011;58877;51.992;4.504;2024-01-07T05:07:05;11.65;;;11.58;;
71176;SDS011;58877;51.992;4.504;2024-01-07T05:09:31;11.18;;;11.08;;
71176;SDS011;58877;51.992;4.504;2024-01-07T05:11:58;10.97;;;10.87;;
71176;SDS011;58877;51.992;4.504;2024-01-07T05:14:24;10.82;;;10.80;;
71176;SDS011;58877;51.992;4.504;2024-01-07T05:16:50;11.67;;;11.54;;
71176;SDS011;58877;51.992;4.504;2024-01-07T05:19:16;11.18;;;11.17;;
71176;SDS011;58877;51.992;4.504;2024-01-07T05:21:41;11.26;;;11.20;;
71176;SDS011;58877;51.992;4.504;2024-01-07T05:24:07;11.39;;;11.34;;
71176;SDS011;58877;51.992;4.504;2024-01-07T05:26:41;11.96;;;11.80;;
71176;SDS011;58877;51.992;4.504;2024-01-07T05:29:07;11.71;;;11.62;;
71176;SDS011;58877;51.992;4.504;2024-01-07T05:31:33;12.13;;;12.01;;
71176;SDS011;58877;51.992;4.504;2024-01-07T05:33:59;12.13;;;11.91;;
71176;SDS011;58877;51.992;4.504;2024-01-07T05:36:24;12.41;;;12.14;;
71176;SDS011;58877;51.992;4.504;2024-01-07T05:38:50;12.32;;;12.16;;
71176;SDS011;58877;51.992;4.504;2024-01-07T05:41:15;11.50;;;11.37;;
71176;SDS011;58877;51.992;4.504;2024-01-07T05:43:41;12.01;;;11.91;;
71176;SDS011;58877;51.992;4.504;2024-01-07T05:46:07;12.46;;;12.13;;
71176;SDS011;58877;51.992;4.504;2024-01-07T05:48:45;12.10;;;11.87;;
71176;SDS011;58877;51.992;4.504;2024-01-07T05:51:12;12.53;;;12.33;;
71176;SDS011;58877;51.992;4.504;2024-01-07T05:53:39;12.90;;;12.75;;
71176;SDS011;58877;51.992;4.504;2024-01-07T05:56:05;12.40;;;12.37;;
71176;SDS011;58877;51.992;4.504;2024-01-07T05:58:32;12.28;;;12.22;;
71176;SDS011;58877;51.992;4.504;2024-01-07T06:00:58;12.23;;;12.13;;
71176;SDS011;58877;51.992;4.504;2024-01-07T06:03:24;12.52;;;12.48;;
71176;SDS011;58877;51.992;4.504;2024-01-07T06:05:49;11.91;;;11.80;;
71176;SDS011;58877;51.992;4.504;2024-01-07T06:08:15;12.88;;;12.82;;
71176;SDS011;58877;51.992;4.504;2024-01-07T06:10:41;12.68;;;12.60;;
71176;SDS011;58877;51.992;4.504;2024-01-07T06:13:07;12.90;;;12.78;;
71176;SDS011;58877;51.992;4.504;2024-01-07T06:15:33;12.93;;;12.86;;
71176;SDS011;58877;51.992;4.504;2024-01-07T06:17:58;13.89;;;13.73;;
71176;SDS011;58877;51.992;4.504;2024-01-07T06:20:24;14.37;;;14.20;;
71176;SDS011;58877;51.992;4.504;2024-01-07T06:22:50;14.50;;;14.32;;
71176;SDS011;58877;51.992;4.504;2024-01-07T06:25:16;13.78;;;13.69;;
71176;SDS011;58877;51.992;4.504;2024-01-07T06:27:42;14.59;;;14.39;;
71176;SDS011;58877;51.992;4.504;2024-01-07T06:30:07;14.79;;;14.51;;
71176;SDS011;58877;51.992;4.504;2024-01-07T06:32:34;14.72;;;14.64;;
71176;SDS011;58877;51.992;4.504;2024-01-07T06:35:00;15.49;;;15.40;;
71176;SDS011;58877;51.992;4.504;2024-01-07T06:37:28;15.39;;;15.18;;
71176;SDS011;58877;51.992;4.504;2024-01-07T06:39:55;15.89;;;15.66;;
71176;SDS011;58877;51.992;4.504;2024-01-07T06:42:23;15.81;;;15.59;;
71176;SDS011;58877;51.992;4.504;2024-01-07T06:44:49;16.60;;;16.39;;
71176;SDS011;58877;51.992;4.504;2024-01-07T06:47:18;16.07;;;15.86;;
71176;SDS011;58877;51.992;4.504;2024-01-07T06:49:44;15.77;;;15.63;;
71176;SDS011;58877;51.992;4.504;2024-01-07T06:52:10;16.36;;;16.21;;
71176;SDS011;58877;51.992;4.504;2024-01-07T06:54:36;16.02;;;15.81;;
71176;SDS011;58877;51.992;4.504;2024-01-07T06:57:01;15.64;;;15.55;;
71176;SDS011;58877;51.992;4.504;2024-01-07T06:59:30;14.83;;;14.64;;
71176;SDS011;58877;51.992;4.504;2024-01-07T07:01:58;15.60;;;15.39;;
71176;SDS011;58877;51.992;4.504;2024-01-07T07:04:24;14.71;;;14.50;;
71176;SDS011;58877;51.992;4.504;2024-01-07T07:06:50;14.90;;;14.77;;
71176;SDS011;58877;51.992;4.504;2024-01-07T07:09:17;15.13;;;15.08;;
71176;SDS011;58877;51.992;4.504;2024-01-07T07:11:43;14.88;;;14.67;;
71176;SDS011;58877;51.992;4.504;2024-01-07T07:14:09;14.43;;;14.20;;
71176;SDS011;58877;51.992;4.504;2024-01-07T07:16:35;13.83;;;13.80;;
71176;SDS011;58877;51.992;4.504;2024-01-07T07:19:00;14.59;;;14.43;;
71176;SDS011;58877;51.992;4.504;2024-01-07T07:21:26;13.53;;;13.49;;
71176;SDS011;58877;51.992;4.504;2024-01-07T07:23:52;13.73;;;13.57;;
71176;SDS011;58877;51.992;4.504;2024-01-07T07:26:19;13.16;;;13.09;;
71176;SDS011;58877;51.992;4.504;2024-01-07T07:28:45;13.04;;;12.90;;
71176;SDS011;58877;51.992;4.504;2024-01-07T07:31:11;13.61;;;13.52;;
71176;SDS011;58877;51.992;4.504;2024-01-07T07:33:40;13.50;;;13.31;;
71176;SDS011;58877;51.992;4.504;2024-01-07T07:36:06;12.90;;;12.87;;
71176;SDS011;58877;51.992;4.504;2024-01-07T07:38:32;13.26;;;13.10;;
71176;SDS011;58877;51.992;4.504;2024-01-07T07:41:02;12.56;;;12.44;;
71176;SDS011;58877;51.992;4.504;2024-01-07T07:43:28;12.44;;;12.35;;
71176;SDS011;58877;51.992;4.504;2024-01-07T07:45:54;12.20;;;12.17;;
71176;SDS011;58877;51.992;4.504;2024-01-07T07:48:20;11.57;;;11.45;;
71176;SDS011;58877;51.992;4.504;2024-01-07T07:50:46;12.40;;;12.26;;
71176;SDS011;58877;51.992;4.504;2024-01-07T07:53:11;12.41;;;12.26;;
71176;SDS011;58877;51.992;4.504;2024-01-07T07:55:37;12.85;;;12.68;;
71176;SDS011;58877;51.992;4.504;2024-01-07T07:58:03;12.10;;;12.03;;
71176;SDS011;58877;51.992;4.504;2024-01-07T08:00:29;11.81;;;11.74;;
71176;SDS011;58877;51.992;4.504;2024-01-07T08:02:55;11.93;;;11.78;;
71176;SDS011;58877;51.992;4.504;2024-01-07T08:05:21;12.58;;;12.39;;
71176;SDS011;58877;51.992;4.504;2024-01-07T08:07:47;11.97;;;11.93;;
71176;SDS011;58877;51.992;4.504;2024-01-07T08:10:13;11.96;;;11.90;;
71176;SDS011;58877;51.992;4.504;2024-01-07T08:12:38;11.90;;;11.85;;
71176;SDS011;58877;51.992;4.504;2024-01-07T08:15:05;11.89;;;11.87;;
71176;SDS011;58877;51.992;4.504;2024-01-07T08:17:31;11.57;;;11.42;;
71176;SDS011;58877;51.992;4.504;2024-01-07T08:19:57;11.68;;;11.57;;
71176;SDS011;58877;51.992;4.504;2024-01-07T08:22:22;11.12;;;11.12;;
71176;SDS011;58877;51.992;4.504;2024-01-07T08:24:48;10.93;;;10.88;;
71176;SDS011;58877;51.992;4.504;2024-01-07T08:27:15;11.59;;;11.51;;
71176;SDS011;58877;51.992;4.504;2024-01-07T08:29:42;11.99;;;11.76;;
71176;SDS011;58877;51.992;4.504;2024-01-07T08:32:09;11.76;;;11.67;;
71176;SDS011;58877;51.992;4.504;2024-01-07T08:34:35;11.17;;;11.04;;
71176;SDS011;58877;51.992;4.504;2024-01-07T08:37:01;11.49;;;11.38;;
71176;SDS011;58877;51.992;4.504;2024-01-07T08:39:27;11.68;;;11.48;;
71176;SDS011;58877;51.992;4.504;2024-01-07T08:41:54;11.16;;;11.07;;
71176;SDS011;58877;51.992;4.504;2024-01-07T08:44:20;10.97;;;10.97;;
71176;SDS011;58877;51.992;4.504;2024-01-07T08:46:45;11.10;;;11.04;;
71176;SDS011;58877;51.992;4.504;2024-01-07T08:49:11;11.04;;;10.96;;
71176;SDS011;58877;51.992;4.504;2024-01-07T08:51:37;11.44;;;11.42;;
71176;SDS011;58877;51.992;4.504;2024-01-07T08:54:03;10.16;;;10.14;;
71176;SDS011;58877;51.992;4.504;2024-01-07T08:56:30;10.37;;;10.26;;
71176;SDS011;58877;51.992;4.504;2024-01-07T08:58:56;10.93;;;10.79;;
71176;SDS011;58877;51.992;4.504;2024-01-07T09:01:22;10.68;;;10.64;;
71176;SDS011;58877;51.992;4.504;2024-01-07T09:03:49;10.13;;;10.13;;
71176;SDS011;58877;51.992;4.504;2024-01-07T09:06:15;10.07;;;10.03;;
71176;SDS011;58877;51.992;4.504;2024-01-07T09:08:41;10.07;;;9.94;;
71176;SDS011;58877;51.992;4.504;2024-01-07T09:11:08;9.85;;;9.81;;
71176;SDS011;58877;51.992;4.504;2024-01-07T09:13:36;9.80;;;9.72;;
71176;SDS011;58877;51.992;4.504;2024-01-07T09:16:02;10.10;;;10.10;;
71176;SDS011;58877;51.992;4.504;2024-01-07T09:18:28;10.93;;;10.92;;
71176;SDS011;58877;51.992;4.504;2024-01-07T09:20:54;10.56;;;10.55;;
71176;SDS011;58877;51.992;4.504;2024-01-07T09:23:20;11.26;;;11.26;;
71176;SDS011;58877;51.992;4.504;2024-01-07T09:25:46;11.16;;;11.15;;
71176;SDS011;58877;51.992;4.504;2024-01-07T09:28:11;10.47;;;10.40;;
71176;SDS011;58877;51.992;4.504;2024-01-07T09:30:38;10.49;;;10.49;;
71176;SDS011;58877;51.992;4.504;2024-01-07T09:33:04;11.03;;;10.91;;
71176;SDS011;58877;51.992;4.504;2024-01-07T09:35:30;10.52;;;10.38;;
71176;SDS011;58877;51.992;4.504;2024-01-07T09:37:56;10.25;;;10.25;;
71176;SDS011;58877;51.992;4.504;2024-01-07T09:40:22;9.85;;;9.85;;
71176;SDS011;58877;51.992;4.504;2024-01-07T09:42:48;9.27;;;9.27;;
71176;SDS011;58877;51.992;4.504;2024-01-07T09:45:15;9.90;;;9.89;;
71176;SDS011;58877;51.992;4.504;2024-01-07T09:47:44;9.72;;;9.61;;
71176;SDS011;58877;51.992;4.504;2024-01-07T09:50:11;10.12;;;10.00;;
71176;SDS011;58877;51.992;4.504;2024-01-07T09:52:43;9.53;;;9.51;;
71176;SDS011;58877;51.992;4.504;2024-01-07T09:55:16;10.38;;;10.32;;
71176;SDS011;58877;51.992;4.504;2024-01-07T09:57:57;9.93;;;9.85;;
71176;SDS011;58877;51.992;4.504;2024-01-07T10:00:25;10.45;;;10.45;;
71176;SDS011;58877;51.992;4.504;2024-01-07T10:02:52;10.36;;;10.36;;
71176;SDS011;58877;51.992;4.504;2024-01-07T10:05:19;9.95;;;9.89;;
71176;SDS011;58877;51.992;4.504;2024-01-07T10:07:44;9.93;;;9.92;;
71176;SDS011;58877;51.992;4.504;2024-01-07T10:10:17;10.09;;;10.01;;
71176;SDS011;58877;51.992;4.504;2024-01-07T10:12:46;10.28;;;10.17;;
71176;SDS011;58877;51.992;4.504;2024-01-07T10:15:12;10.36;;;10.31;;
71176;SDS011;58877;51.992;4.504;2024-01-07T10:17:41;10.40;;;10.38;;
71176;SDS011;58877;51.992;4.504;2024-01-07T10:20:08;9.82;;;9.82;;
71176;SDS011;58877;51.992;4.504;2024-01-07T10:22:37;9.53;;;9.52;;
71176;SDS011;58877;51.992;4.504;2024-01-07T10:25:03;9.49;;;9.49;;
71176;SDS011;58877;51.992;4.504;2024-01-07T10:27:29;9.14;;;9.13;;
71176;SDS011;58877;51.992;4.504;2024-01-07T10:29:58;9.65;;;9.63;;
71176;SDS011;58877;51.992;4.504;2024-01-07T10:32:28;8.92;;;8.89;;
71176;SDS011;58877;51.992;4.504;2024-01-07T10:34:57;8.92;;;8.86;;
71176;SDS011;58877;51.992;4.504;2024-01-07T10:37:28;8.45;;;8.41;;
71176;SDS011;58877;51.992;4.504;2024-01-07T10:39:58;8.73;;;8.73;;
71176;SDS011;58877;51.992;4.504;2024-01-07T10:42:31;8.53;;;8.53;;
71176;SDS011;58877;51.992;4.504;2024-01-07T10:45:01;8.63;;;8.62;;
71176;SDS011;58877;51.992;4.504;2024-01-07T10:47:29;7.94;;;7.89;;
71176;SDS011;58877;51.992;4.504;2024-01-07T10:49:56;7.37;;;7.36;;
71176;SDS011;58877;51.992;4.504;2024-01-07T10:52:27;7.49;;;7.49;;
71176;SDS011;58877;51.992;4.504;2024-01-07T10:54:53;7.26;;;7.25;;
71176;SDS011;58877;51.992;4.504;2024-01-07T10:57:34;7.05;;;7.04;;
71176;SDS011;58877;51.992;4.504;2024-01-07T11:00:08;7.19;;;7.18;;
71176;SDS011;58877;51.992;4.504;2024-01-07T11:02:37;7.03;;;7.02;;
71176;SDS011;58877;51.992;4.504;2024-01-07T11:05:20;6.79;;;6.79;;
71176;SDS011;58877;51.992;4.504;2024-01-07T11:11:32;6.80;;;6.79;;
71176;SDS011;58877;51.992;4.504;2024-01-07T11:14:18;6.95;;;6.93;;
71176;SDS011;58877;51.992;4.504;2024-01-07T11:17:07;6.55;;;6.53;;
71176;SDS011;58877;51.992;4.504;2024-01-07T11:19:36;6.79;;;6.78;;
71176;SDS011;58877;51.992;4.504;2024-01-07T11:22:21;6.69;;;6.67;;
71176;SDS011;58877;51.992;4.504;2024-01-07T11:24:53;6.26;;;6.22;;
71176;SDS011;58877;51.992;4.504;2024-01-07T11:27:30;6.38;;;6.36;;
71176;SDS011;58877;51.992;4.504;2024-01-07T11:29:57;6.15;;;6.14;;
71176;SDS011;58877;51.992;4.504;2024-01-07T11:32:29;6.02;;;6.00;;
71176;SDS011;58877;51.992;4.504;2024-01-07T11:34:56;5.52;;;5.51;;
71176;SDS011;58877;51.992;4.504;2024-01-07T11:37:24;5.69;;;5.69;;
71176;SDS011;58877;51.992;4.504;2024-01-07T11:39:51;6.09;;;6.06;;
71176;SDS011;58877;51.992;4.504;2024-01-07T11:42:29;5.77;;;5.75;;
71176;SDS011;58877;51.992;4.504;2024-01-07T11:44:57;5.81;;;5.81;;
71176;SDS011;58877;51.992;4.504;2024-01-07T11:47:23;6.22;;;6.22;;
71176;SDS011;58877;51.992;4.504;2024-01-07T11:49:53;6.00;;;6.00;;
71176;SDS011;58877;51.992;4.504;2024-01-07T11:52:20;6.02;;;6.02;;
71176;SDS011;58877;51.992;4.504;2024-01-07T11:54:49;5.62;;;5.55;;
71176;SDS011;58877;51.992;4.504;2024-01-07T11:57:16;5.74;;;5.65;;
71176;SDS011;58877;51.992;4.504;2024-01-07T11:59:43;5.56;;;5.51;;
71176;SDS011;58877;51.992;4.504;2024-01-07T12:02:10;5.25;;;5.25;;
71176;SDS011;58877;51.992;4.504;2024-01-07T12:04:39;5.47;;;5.47;;
71176;SDS011;58877;51.992;4.504;2024-01-07T12:07:05;4.81;;;4.81;;
71176;SDS011;58877;51.992;4.504;2024-01-07T12:09:32;4.26;;;4.26;;
71176;SDS011;58877;51.992;4.504;2024-01-07T12:12:04;4.67;;;4.67;;
71176;SDS011;58877;51.992;4.504;2024-01-07T12:14:30;4.34;;;4.34;;
71176;SDS011;58877;51.992;4.504;2024-01-07T12:16:57;4.38;;;4.36;;
71176;SDS011;58877;51.992;4.504;2024-01-07T12:19:24;4.19;;;4.16;;
71176;SDS011;58877;51.992;4.504;2024-01-07T12:22:03;4.05;;;4.03;;
71176;SDS011;58877;51.992;4.504;2024-01-07T12:24:31;3.91;;;3.87;;
71176;SDS011;58877;51.992;4.504;2024-01-07T12:27:03;4.25;;;4.23;;
71176;SDS011;58877;51.992;4.504;2024-01-07T12:29:32;3.85;;;3.83;;
71176;SDS011;58877;51.992;4.504;2024-01-07T12:31:59;4.19;;;4.15;;
71176;SDS011;58877;51.992;4.504;2024-01-07T12:34:25;4.35;;;4.31;;
71176;SDS011;58877;51.992;4.504;2024-01-07T12:36:54;4.64;;;4.60;;
71176;SDS011;58877;51.992;4.504;2024-01-07T12:39:20;4.52;;;4.49;;
71176;SDS011;58877;51.992;4.504;2024-01-07T12:41:49;4.72;;;4.70;;
71176;SDS011;58877;51.992;4.504;2024-01-07T12:44:15;4.73;;;4.71;;
71176;SDS011;58877;51.992;4.504;2024-01-07T12:46:44;5.07;;;5.07;;
71176;SDS011;58877;51.992;4.504;2024-01-07T12:49:11;5.26;;;5.25;;
71176;SDS011;58877;51.992;4.504;2024-01-07T12:51:37;4.75;;;4.75;;
71176;SDS011;58877;51.992;4.504;2024-01-07T12:54:07;4.89;;;4.89;;
71176;SDS011;58877;51.992;4.504;2024-01-07T12:56:32;4.84;;;4.84;;
71176;SDS011;58877;51.992;4.504;2024-01-07T12:59:01;4.88;;;4.88;;
71176;SDS011;58877;51.992;4.504;2024-01-07T13:01:30;4.83;;;4.83;;
71176;SDS011;58877;51.992;4.504;2024-01-07T13:03:57;4.63;;;4.63;;
71176;SDS011;58877;51.992;4.504;2024-01-07T13:06:23;4.38;;;4.38;;
71176;SDS011;58877;51.992;4.504;2024-01-07T13:08:48;4.25;;;4.25;;
71176;SDS011;58877;51.992;4.504;2024-01-07T13:11:15;3.63;;;3.62;;
71176;SDS011;58877;51.992;4.504;2024-01-07T13:13:44;3.27;;;3.24;;
71176;SDS011;58877;51.992;4.504;2024-01-07T13:16:12;2.96;;;2.96;;
71176;SDS011;58877;51.992;4.504;2024-01-07T13:18:45;2.75;;;2.75;;
71176;SDS011;58877;51.992;4.504;2024-01-07T13:21:11;2.79;;;2.79;;
71176;SDS011;58877;51.992;4.504;2024-01-07T13:23:38;2.65;;;2.65;;
71176;SDS011;58877;51.992;4.504;2024-01-07T13:26:06;2.71;;;2.71;;
71176;SDS011;58877;51.992;4.504;2024-01-07T13:28:34;2.81;;;2.81;;
71176;SDS011;58877;51.992;4.504;2024-01-07T13:31:02;2.70;;;2.67;;
71176;SDS011;58877;51.992;4.504;2024-01-07T13:33:29;2.59;;;2.56;;
71176;SDS011;58877;51.992;4.504;2024-01-07T13:35:58;2.76;;;2.74;;
71176;SDS011;58877;51.992;4.504;2024-01-07T13:41:20;2.85;;;2.82;;
71176;SDS011;58877;51.992;4.504;2024-01-07T13:43:45;2.61;;;2.59;;
71176;SDS011;58877;51.992;4.504;2024-01-07T13:46:21;2.35;;;2.34;;
71176;SDS011;58877;51.992;4.504;2024-01-07T13:48:50;2.56;;;2.55;;
71176;SDS011;58877;51.992;4.504;2024-01-07T13:51:17;2.49;;;2.48;;
71176;SDS011;58877;51.992;4.504;2024-01-07T13:53:46;2.57;;;2.57;;
71176;SDS011;58877;51.992;4.504;2024-01-07T13:56:12;2.50;;;2.50;;
71176;SDS011;58877;51.992;4.504;2024-01-07T13:58:38;2.57;;;2.55;;
71176;SDS011;58877;51.992;4.504;2024-01-07T14:01:10;2.72;;;2.71;;
71176;SDS011;58877;51.992;4.504;2024-01-07T14:03:49;2.37;;;2.36;;
71176;SDS011;58877;51.992;4.504;2024-01-07T14:06:15;2.46;;;2.45;;
71176;SDS011;58877;51.992;4.504;2024-01-07T14:08:48;2.26;;;2.25;;
71176;SDS011;58877;51.992;4.504;2024-01-07T14:11:17;2.13;;;2.13;;
71176;SDS011;58877;51.992;4.504;2024-01-07T14:13:43;2.04;;;2.04;;
71176;SDS011;58877;51.992;4.504;2024-01-07T14:16:11;2.33;;;2.32;;
71176;SDS011;58877;51.992;4.504;2024-01-07T14:18:37;2.14;;;2.13;;
71176;SDS011;58877;51.992;4.504;2024-01-07T14:21:03;2.00;;;2.00;;
71176;SDS011;58877;51.992;4.504;2024-01-07T14:23:36;2.19;;;2.19;;
71176;SDS011;58877;51.992;4.504;2024-01-07T14:26:01;2.39;;;2.39;;
71176;SDS011;58877;51.992;4.504;2024-01-07T14:28:28;2.22;;;2.22;;
71176;SDS011;58877;51.992;4.504;2024-01-07T14:30:54;2.18;;;2.18;;
71176;SDS011;58877;51.992;4.504;2024-01-07T14:33:20;2.49;;;2.48;;
71176;SDS011;58877;51.992;4.504;2024-01-07T14:35:45;2.14;;;2.13;;
71176;SDS011;58877;51.992;4.504;2024-01-07T14:38:11;2.31;;;2.31;;
71176;SDS011;58877;51.992;4.504;2024-01-07T14:40:37;2.23;;;2.23;;
71176;SDS011;58877;51.992;4.504;2024-01-07T14:43:06;2.63;;;2.63;;
71176;SDS011;58877;51.992;4.504;2024-01-07T14:45:34;2.24;;;2.24;;
71176;SDS011;58877;51.992;4.504;2024-01-07T14:48:00;2.30;;;2.30;;
71176;SDS011;58877;51.992;4.504;2024-01-07T14:50:25;2.44;;;2.44;;
71176;SDS011;58877;51.992;4.504;2024-01-07T14:52:51;2.24;;;2.24;;
71176;SDS011;58877;51.992;4.504;2024-01-07T14:55:17;2.42;;;2.42;;
71176;SDS011;58877;51.992;4.504;2024-01-07T14:57:46;2.10;;;2.10;;
71176;SDS011;58877;51.992;4.504;2024-01-07T15:00:12;2.17;;;2.17;;
71176;SDS011;58877;51.992;4.504;2024-01-07T15:02:39;2.07;;;2.07;;
71176;SDS011;58877;51.992;4.504;2024-01-07T15:05:04;2.46;;;2.46;;
71176;SDS011;58877;51.992;4.504;2024-01-07T15:07:31;2.46;;;2.46;;
71176;SDS011;58877;51.992;4.504;2024-01-07T15:10:00;2.43;;;2.41;;
71176;SDS011;58877;51.992;4.504;2024-01-07T15:12:28;2.22;;;2.20;;
71176;SDS011;58877;51.992;4.504;2024-01-07T15:15:01;2.49;;;2.46;;
71176;SDS011;58877;51.992;4.504;2024-01-07T15:17:31;2.63;;;2.61;;
71176;SDS011;58877;51.992;4.504;2024-01-07T15:19:57;2.33;;;2.33;;
71176;SDS011;58877;51.992;4.504;2024-01-07T15:22:26;2.21;;;2.21;;
71176;SDS011;58877;51.992;4.504;2024-01-07T15:24:52;2.09;;;2.08;;
71176;SDS011;58877;51.992;4.504;2024-01-07T15:27:18;2.27;;;2.27;;
71176;SDS011;58877;51.992;4.504;2024-01-07T15:29:44;2.23;;;2.22;;
71176;SDS011;58877;51.992;4.504;2024-01-07T15:32:10;2.34;;;2.33;;
71176;SDS011;58877;51.992;4.504;2024-01-07T15:34:36;2.10;;;2.09;;
71176;SDS011;58877;51.992;4.504;2024-01-07T15:37:02;2.46;;;2.45;;
71176;SDS011;58877;51.992;4.504;2024-01-07T15:39:28;2.36;;;2.36;;
71176;SDS011;58877;51.992;4.504;2024-01-07T15:41:54;2.27;;;2.27;;
71176;SDS011;58877;51.992;4.504;2024-01-07T15:44:22;1.87;;;1.87;;
71176;SDS011;58877;51.992;4.504;2024-01-07T15:46:48;2.29;;;2.29;;
71176;SDS011;58877;51.992;4.504;2024-01-07T15:49:14;2.17;;;2.17;;
71176;SDS011;58877;51.992;4.504;2024-01-07T15:51:40;2.13;;;2.13;;
71176;SDS011;58877;51.992;4.504;2024-01-07T15:54:06;2.09;;;2.09;;
71176;SDS011;58877;51.992;4.504;2024-01-07T15:56:32;2.00;;;2.00;;
71176;SDS011;58877;51.992;4.504;2024-01-07T15:58:58;2.47;;;2.47;;
71176;SDS011;58877;51.992;4.504;2024-01-07T16:01:24;2.36;;;2.36;;
71176;SDS011;58877;51.992;4.504;2024-01-07T16:03:49;2.21;;;2.21;;
71176;SDS011;58877;51.992;4.504;2024-01-07T16:06:15;2.19;;;2.19;;